createdAt,value
2023-03-17T00:00:46.716Z,7.03
2023-03-17T00:03:23.478Z,8.30
2023-03-17T00:05:54.115Z,5.53
2023-03-17T00:08:25.085Z,6.77
2023-03-17T00:10:55.667Z,5.83
2023-03-17T00:13:24.190Z,5.70
2023-03-17T00:15:57.590Z,5.37
2023-03-17T00:18:26.043Z,6.80
2023-03-17T00:20:54.666Z,5.63
2023-03-17T00:23:25.398Z,6.23
2023-03-17T00:25:54.889Z,5.63
2023-03-17T00:28:26.601Z,6.80
2023-03-17T00:30:59.611Z,5.50
2023-03-17T00:33:30.824Z,5.80
2023-03-17T00:35:59.978Z,6.30
2023-03-17T00:38:28.452Z,6.70
2023-03-17T00:40:57.912Z,6.47
2023-03-17T00:43:26.214Z,4.80
2023-03-17T00:45:54.972Z,5.93
2023-03-17T00:48:24.177Z,5.53
2023-03-17T00:50:52.673Z,6.10
2023-03-17T00:53:22.408Z,5.80
2023-03-17T00:55:50.982Z,5.03
2023-03-17T00:58:28.714Z,4.80
2023-03-17T01:00:58.101Z,5.50
2023-03-17T01:03:26.838Z,5.63
2023-03-17T01:05:57.693Z,5.23
2023-03-17T01:08:27.352Z,6.33
2023-03-17T01:10:56.095Z,4.60
2023-03-17T01:13:26.341Z,4.47
2023-03-17T01:15:56.389Z,5.27
2023-03-17T01:18:25.705Z,4.90
2023-03-17T01:20:54.600Z,4.27
2023-03-17T01:23:23.064Z,4.97
2023-03-17T01:25:51.237Z,5.07
2023-03-17T01:28:21.581Z,5.73
2023-03-17T01:30:51.090Z,5.40
2023-03-17T01:33:19.284Z,3.33
2023-03-17T01:35:47.459Z,4.30
2023-03-17T01:38:16.051Z,4.43
2023-03-17T01:40:47.973Z,4.07
2023-03-17T01:43:22.458Z,3.47
2023-03-17T01:46:30.031Z,4.00
2023-03-17T01:49:23.613Z,6.83
2023-03-17T01:52:00.848Z,4.57
2023-03-17T01:54:38.155Z,3.13
2023-03-17T01:57:14.189Z,4.30
2023-03-17T01:59:48.480Z,5.13
2023-03-17T02:02:24.505Z,4.90
2023-03-17T02:04:53.856Z,3.00
2023-03-17T02:07:24.401Z,2.90
2023-03-17T02:09:53.575Z,3.23
2023-03-17T02:12:24.606Z,4.20
2023-03-17T02:14:54.031Z,2.77
2023-03-17T02:17:26.797Z,3.53
2023-03-17T02:19:56.739Z,4.47
2023-03-17T02:22:26.418Z,5.20
2023-03-17T02:24:59.423Z,5.83
2023-03-17T02:27:34.805Z,3.60
2023-03-17T02:30:03.181Z,2.90
2023-03-17T02:32:31.364Z,4.20
2023-03-17T02:34:59.488Z,3.87
2023-03-17T02:37:29.357Z,3.47
2023-03-17T02:39:57.748Z,2.60
2023-03-17T02:42:26.311Z,3.17
2023-03-17T02:44:54.931Z,4.47
2023-03-17T02:47:23.090Z,4.13
2023-03-17T02:49:52.183Z,3.60
2023-03-17T02:52:20.326Z,2.70
2023-03-17T02:54:50.015Z,2.70
2023-03-17T02:57:18.178Z,3.97
2023-03-17T02:59:46.598Z,2.80
2023-03-17T03:02:15.386Z,4.43
2023-03-17T03:04:44.106Z,2.67
2023-03-17T03:07:12.570Z,3.50
2023-03-17T03:09:41.998Z,3.50
2023-03-17T03:12:12.055Z,3.07
2023-03-17T03:14:40.840Z,2.90
2023-03-17T03:17:09.664Z,2.83
2023-03-17T03:19:38.138Z,4.63
2023-03-17T03:22:06.873Z,3.10
2023-03-17T03:24:35.670Z,3.27
2023-03-17T03:27:03.800Z,3.27
2023-03-17T03:29:33.239Z,2.63
2023-03-17T03:32:02.066Z,2.50
2023-03-17T03:34:30.551Z,3.77
2023-03-17T03:36:58.661Z,3.67
2023-03-17T03:39:26.930Z,3.50
2023-03-17T03:41:57.294Z,3.40
2023-03-17T03:44:26.485Z,4.70
2023-03-17T03:46:55.899Z,3.70
2023-03-17T03:49:24.392Z,2.97
2023-03-17T03:51:52.567Z,4.07
2023-03-17T03:54:20.751Z,2.90
2023-03-17T03:56:48.867Z,2.80
2023-03-17T03:59:17.249Z,4.03
2023-03-17T04:01:45.604Z,3.47
2023-03-17T04:04:15.386Z,3.73
2023-03-17T04:06:43.522Z,3.97
2023-03-17T04:09:11.632Z,2.53
2023-03-17T04:11:39.835Z,4.07
2023-03-17T04:14:08.544Z,3.57
2023-03-17T04:16:37.060Z,4.00
2023-03-17T04:19:05.428Z,2.80
2023-03-17T04:21:34.909Z,3.47
2023-03-17T04:24:04.279Z,2.57
2023-03-17T04:26:33.276Z,4.10
2023-03-17T04:29:01.448Z,2.67
2023-03-17T04:31:29.633Z,3.00
2023-03-17T04:33:57.782Z,2.70
2023-03-17T04:36:26.004Z,4.23
2023-03-17T04:38:55.846Z,3.83
2023-03-17T04:41:24.013Z,2.50
2023-03-17T04:43:52.117Z,2.20
2023-03-17T04:46:20.460Z,2.23
2023-03-17T04:48:48.595Z,2.10
2023-03-17T04:51:17.054Z,2.53
2023-03-17T04:53:45.565Z,3.60
2023-03-17T04:56:15.529Z,3.30
2023-03-17T04:58:43.901Z,2.10
2023-03-17T05:01:12.185Z,3.93
2023-03-17T05:03:40.601Z,3.07
2023-03-17T05:06:09.116Z,2.60
2023-03-17T05:08:37.309Z,3.07
2023-03-17T05:11:06.215Z,2.93
2023-03-17T05:13:35.818Z,3.73
2023-03-17T05:16:04.277Z,2.80
2023-03-17T05:18:32.401Z,3.23
2023-03-17T05:21:00.949Z,4.37
2023-03-17T05:23:29.615Z,2.57
2023-03-17T05:25:57.797Z,3.60
2023-03-17T05:28:26.711Z,2.97
2023-03-17T05:30:56.536Z,3.47
2023-03-17T05:33:25.089Z,2.70
2023-03-17T05:35:53.607Z,3.63
2023-03-17T05:38:21.887Z,4.40
2023-03-17T05:40:52.640Z,3.13
2023-03-17T05:43:21.032Z,3.07
2023-03-17T05:45:50.543Z,3.23
2023-03-17T05:48:20.060Z,4.70
2023-03-17T05:50:48.278Z,3.53
2023-03-17T05:53:17.614Z,4.07
2023-03-17T05:55:45.856Z,4.27
2023-03-17T05:58:15.668Z,5.00
2023-03-17T06:00:44.669Z,3.63
2023-03-17T06:03:12.841Z,4.27
2023-03-17T06:05:42.411Z,4.33
2023-03-17T06:08:10.561Z,4.23
2023-03-17T06:10:38.698Z,9.57
2023-03-17T06:13:06.838Z,3.67
2023-03-17T06:15:36.293Z,3.10
2023-03-17T06:18:06.132Z,3.90
2023-03-17T06:20:34.722Z,3.47
2023-03-17T06:23:05.813Z,4.33
2023-03-17T06:25:35.067Z,4.87
2023-03-17T06:28:04.151Z,3.13
2023-03-17T06:30:33.744Z,3.77
2023-03-17T06:33:02.781Z,4.87
2023-03-17T06:35:32.111Z,5.97
2023-03-17T06:38:01.274Z,4.30
2023-03-17T06:40:32.017Z,4.87
2023-03-17T06:43:01.123Z,3.43
2023-03-17T06:45:29.624Z,4.47
2023-03-17T06:47:58.017Z,4.60
2023-03-17T06:50:26.990Z,5.03
2023-03-17T06:52:55.184Z,4.07
2023-03-17T06:55:23.304Z,5.43
2023-03-17T06:57:52.811Z,5.40
2023-03-17T07:00:22.978Z,5.57
2023-03-17T07:02:51.127Z,3.90
2023-03-17T07:05:19.612Z,5.73
2023-03-17T07:07:47.780Z,4.83
2023-03-17T07:10:17.206Z,3.93
2023-03-17T07:12:45.891Z,4.03
2023-03-17T07:15:18.798Z,4.63
2023-03-17T07:17:47.927Z,7.63
2023-03-17T07:20:16.133Z,4.43
2023-03-17T07:22:44.319Z,4.57
2023-03-17T07:25:12.659Z,5.57
2023-03-17T07:27:40.858Z,3.37
2023-03-17T07:30:10.982Z,5.33
2023-03-17T07:32:41.836Z,5.13
2023-03-17T07:35:10.734Z,4.30
2023-03-17T07:37:38.998Z,7.03
2023-03-17T07:40:10.180Z,4.13
2023-03-17T07:42:38.710Z,3.97
2023-03-17T07:45:08.559Z,4.23
2023-03-17T07:47:36.711Z,4.20
2023-03-17T07:50:07.688Z,4.07
2023-03-17T07:52:35.867Z,3.87
2023-03-17T07:55:04.399Z,3.10
2023-03-17T07:57:32.641Z,5.27
2023-03-17T08:00:01.165Z,4.13
2023-03-17T08:02:29.797Z,2.57
2023-03-17T08:04:57.930Z,5.00
2023-03-17T08:07:27.758Z,2.80
2023-03-17T08:09:55.997Z,3.63
2023-03-17T08:12:25.546Z,3.93
2023-03-17T08:14:53.737Z,4.13
2023-03-17T08:17:26.875Z,6.50
2023-03-17T08:19:55.154Z,2.20
2023-03-17T08:22:24.754Z,5.60
2023-03-17T08:24:54.446Z,2.17
2023-03-17T08:27:23.076Z,3.37
2023-03-17T08:29:51.978Z,3.47
2023-03-17T08:32:20.694Z,1.87
2023-03-17T08:34:49.370Z,2.20
2023-03-17T08:37:17.554Z,2.90
2023-03-17T08:39:45.859Z,4.83
2023-03-17T08:42:15.574Z,3.03
2023-03-17T08:44:44.316Z,2.47
2023-03-17T08:47:12.500Z,2.13
2023-03-17T08:49:41.046Z,3.47
2023-03-17T08:52:09.965Z,2.80
2023-03-17T08:54:39.485Z,3.67
2023-03-17T08:57:07.780Z,3.60
2023-03-17T08:59:37.307Z,3.27
2023-03-17T09:02:05.686Z,2.93
2023-03-17T09:04:33.978Z,2.87
2023-03-17T09:07:04.220Z,3.70
2023-03-17T09:09:34.498Z,4.43
2023-03-17T09:12:04.342Z,4.33
2023-03-17T09:14:42.639Z,2.70
2023-03-17T09:17:14.410Z,3.93
2023-03-17T09:19:43.359Z,2.83
2023-03-17T09:22:15.235Z,2.63
2023-03-17T09:24:43.457Z,4.50
2023-03-17T09:27:12.766Z,3.17
2023-03-17T09:29:41.186Z,2.20
2023-03-17T09:32:10.292Z,3.37
2023-03-17T09:34:39.787Z,3.83
2023-03-17T09:37:09.736Z,4.10
2023-03-17T09:39:38.618Z,2.93
2023-03-17T09:42:24.287Z,3.17
2023-03-17T09:45:17.605Z,3.93
2023-03-17T09:48:17.741Z,3.20
2023-03-17T09:50:56.719Z,2.20
2023-03-17T09:53:34.036Z,4.30
2023-03-17T09:56:09.682Z,1.90
2023-03-17T09:58:42.464Z,1.70
2023-03-17T10:01:12.733Z,2.17
2023-03-17T10:03:41.073Z,4.43
2023-03-17T10:06:40.984Z,3.93
2023-03-17T10:09:26.179Z,4.10
2023-03-17T10:12:07.410Z,3.33
2023-03-17T10:14:59.544Z,2.60
2023-03-17T10:17:33.068Z,2.72
2023-03-17T10:20:11.343Z,2.83
2023-03-17T10:22:48.871Z,2.60
2023-03-17T10:25:21.407Z,1.98
2023-03-17T10:27:59.694Z,3.58
2023-03-17T10:30:28.974Z,4.88
2023-03-17T10:33:01.864Z,2.20
2023-03-17T10:35:35.859Z,4.00
2023-03-17T10:38:17.724Z,3.63
2023-03-17T10:40:58.029Z,3.22
2023-03-17T10:43:32.013Z,3.13
2023-03-17T10:46:03.422Z,2.63
2023-03-17T10:48:37.147Z,3.10
2023-03-17T10:51:11.051Z,3.90
2023-03-17T10:53:43.926Z,3.53
2023-03-17T10:56:25.017Z,3.75
2023-03-17T10:58:56.865Z,2.13
2023-03-17T11:01:35.078Z,1.77
2023-03-17T11:04:06.399Z,2.45
2023-03-17T11:06:42.731Z,1.98
2023-03-17T11:09:19.682Z,2.67
2023-03-17T11:11:51.322Z,5.60
2023-03-17T11:14:20.850Z,2.08
2023-03-17T11:16:55.771Z,2.10
2023-03-17T11:19:35.689Z,2.13
2023-03-17T11:22:12.509Z,3.70
2023-03-17T11:24:58.066Z,3.30
2023-03-17T11:27:33.762Z,2.83
2023-03-17T11:30:25.984Z,3.40
2023-03-17T11:33:01.881Z,2.10
2023-03-17T11:35:51.429Z,2.80
2023-03-17T11:38:28.098Z,2.78
2023-03-17T11:41:18.693Z,3.40
2023-03-17T11:44:13.523Z,2.55
2023-03-17T11:46:48.914Z,2.97
2023-03-17T11:49:22.818Z,3.95
2023-03-17T11:52:06.176Z,2.38
2023-03-17T11:54:55.368Z,2.70
2023-03-17T11:57:32.837Z,3.15
2023-03-17T12:00:07.182Z,2.78
2023-03-17T12:02:44.634Z,2.72
2023-03-17T12:05:20.124Z,2.55
2023-03-17T12:07:54.769Z,1.80
2023-03-17T12:10:28.569Z,3.17
2023-03-17T12:13:04.852Z,3.00
2023-03-17T12:15:40.605Z,3.83
2023-03-17T12:18:19.086Z,3.47
2023-03-17T12:20:56.678Z,3.58
2023-03-17T12:23:39.605Z,1.90
2023-03-17T12:26:14.436Z,1.67
2023-03-17T12:28:55.623Z,2.08
2023-03-17T12:31:31.568Z,3.97
2023-03-17T12:34:08.416Z,4.30
2023-03-17T12:36:38.222Z,2.03
2023-03-17T12:39:12.734Z,3.33
2023-03-17T12:42:28.014Z,2.38
2023-03-17T12:45:30.956Z,2.20
2023-03-17T12:48:35.163Z,2.05
2023-03-17T12:51:38.702Z,3.08
2023-03-17T12:54:15.297Z,3.85
2023-03-17T12:56:49.293Z,3.50
2023-03-17T12:59:22.513Z,3.60
2023-03-17T13:01:58.910Z,2.15
2023-03-17T13:04:32.390Z,1.85
2023-03-17T13:07:12.398Z,1.35
2023-03-17T13:09:48.374Z,2.28
2023-03-17T13:13:06.292Z,2.03
2023-03-17T13:15:56.885Z,1.45
2023-03-17T13:19:08.758Z,2.20
2023-03-17T13:21:38.666Z,2.65
2023-03-17T13:24:48.533Z,2.13
2023-03-17T13:27:45.984Z,2.95
2023-03-17T13:31:10.044Z,2.08
2023-03-17T13:33:46.455Z,3.13
2023-03-17T13:36:42.704Z,1.80
2023-03-17T13:39:42.996Z,2.60
2023-03-17T13:42:54.040Z,6.10
2023-03-17T13:45:38.367Z,3.28
2023-03-17T13:48:34.062Z,2.45
2023-03-17T13:51:16.415Z,1.45
2023-03-17T13:53:53.898Z,3.17
2023-03-17T13:56:30.357Z,2.00
2023-03-17T13:59:14.952Z,3.17
2023-03-17T14:01:54.460Z,2.50
2023-03-17T14:04:29.052Z,3.28
2023-03-17T14:07:06.858Z,8.02
2023-03-17T14:09:39.556Z,4.93
2023-03-17T14:12:20.668Z,4.50
2023-03-17T14:14:54.176Z,4.38
2023-03-17T14:17:27.055Z,4.20
2023-03-17T14:20:06.320Z,3.28
2023-03-17T14:22:41.182Z,3.10
2023-03-17T14:25:18.252Z,3.53
2023-03-17T14:27:49.958Z,4.10
2023-03-17T14:30:23.058Z,3.22
2023-03-17T14:33:00.610Z,4.03
2023-03-17T14:35:32.925Z,2.83
2023-03-17T14:38:02.775Z,5.10
2023-03-17T14:40:36.812Z,3.78
2023-03-17T14:43:05.489Z,6.40
2023-03-17T14:45:51.836Z,4.53
2023-03-17T14:48:27.875Z,2.70
2023-03-17T14:51:04.817Z,3.63
2023-03-17T14:53:34.226Z,3.22
2023-03-17T14:56:04.262Z,3.00
2023-03-17T14:58:41.443Z,5.07
2023-03-17T15:01:17.541Z,4.15
2023-03-17T15:03:57.289Z,5.20
2023-03-17T15:06:29.934Z,4.10
2023-03-17T15:09:01.189Z,3.22
2023-03-17T15:11:39.522Z,3.50
2023-03-17T15:14:21.203Z,3.53
2023-03-17T15:16:52.853Z,4.18
2023-03-17T15:19:27.685Z,4.07
2023-03-17T15:22:00.209Z,5.82
2023-03-17T15:24:40.435Z,4.75
2023-03-17T15:27:17.754Z,5.75
2023-03-17T15:29:48.177Z,5.88
2023-03-17T15:32:20.443Z,6.60
2023-03-17T15:34:49.346Z,3.70
2023-03-17T15:37:20.483Z,6.38
2023-03-17T15:39:50.195Z,5.80
2023-03-17T15:42:24.685Z,5.57
2023-03-17T15:44:53.110Z,5.03
2023-03-17T15:47:23.796Z,6.32
2023-03-17T15:49:52.532Z,4.63
2023-03-17T15:52:24.832Z,4.47
2023-03-17T15:54:54.790Z,7.57
2023-03-17T15:57:24.666Z,5.80
2023-03-17T15:59:52.892Z,4.80
2023-03-17T16:02:38.973Z,4.28
2023-03-17T16:05:18.532Z,5.85
2023-03-17T16:07:47.289Z,3.80
2023-03-17T16:10:22.018Z,3.92
2023-03-17T16:12:52.537Z,5.22
2023-03-17T16:15:24.064Z,4.68
2023-03-17T16:17:55.185Z,4.60
2023-03-17T16:20:27.051Z,5.82
2023-03-17T16:22:59.424Z,5.68
2023-03-17T16:25:30.364Z,7.82
2023-03-17T16:28:02.924Z,7.97
2023-03-17T16:30:34.498Z,7.63
2023-03-17T16:33:10.393Z,6.18
2023-03-17T16:35:38.551Z,6.90
2023-03-17T16:38:10.825Z,5.80
2023-03-17T16:40:39.986Z,4.95
2023-03-17T16:43:25.446Z,3.78
2023-03-17T16:45:57.085Z,3.65
2023-03-17T16:48:26.380Z,4.65
2023-03-17T16:50:55.778Z,5.95
2023-03-17T16:53:24.838Z,4.05
2023-03-17T16:55:55.007Z,4.00
2023-03-17T16:58:26.964Z,4.40
2023-03-17T17:01:01.307Z,4.90
2023-03-17T17:03:31.733Z,3.92
2023-03-17T17:05:59.851Z,4.93
2023-03-17T17:08:28.124Z,3.80
2023-03-17T17:10:57.255Z,6.43
2023-03-17T17:13:26.766Z,6.43
2023-03-17T17:15:56.179Z,6.60
2023-03-17T17:18:25.707Z,4.88
2023-03-17T17:20:56.663Z,6.30
2023-03-17T17:23:28.154Z,3.50
2023-03-17T17:25:56.620Z,4.83
2023-03-17T17:28:27.118Z,4.87
2023-03-17T17:30:55.628Z,4.67
2023-03-17T17:33:24.348Z,3.63
2023-03-17T17:35:54.059Z,4.97
2023-03-17T17:38:26.711Z,4.77
2023-03-17T17:40:57.290Z,5.77
2023-03-17T17:43:27.087Z,5.80
2023-03-17T17:45:55.907Z,4.30
2023-03-17T17:48:27.529Z,4.80
2023-03-17T17:50:57.530Z,5.05
2023-03-17T17:53:26.371Z,5.20
2023-03-17T17:55:54.508Z,5.80
2023-03-17T17:58:25.483Z,5.93
2023-03-17T18:00:57.136Z,5.43
2023-03-17T18:03:26.057Z,6.47
2023-03-17T18:05:56.087Z,7.70
2023-03-17T18:08:25.337Z,6.00
2023-03-17T18:10:55.619Z,6.77
2023-03-17T18:13:23.955Z,6.50
2023-03-17T18:15:52.268Z,7.07
2023-03-17T18:18:21.772Z,7.00
2023-03-17T18:20:50.260Z,5.70
2023-03-17T18:23:20.125Z,5.80
2023-03-17T18:25:48.305Z,8.53
2023-03-17T18:28:17.164Z,8.10
2023-03-17T18:30:46.856Z,7.60
2023-03-17T18:33:19.639Z,7.03
2023-03-17T18:35:52.530Z,8.33
2023-03-17T18:38:20.723Z,6.87
2023-03-17T18:40:48.956Z,6.03
2023-03-17T18:43:17.105Z,7.80
2023-03-17T18:45:46.105Z,6.40
2023-03-17T18:48:14.343Z,6.53
2023-03-17T18:50:42.577Z,7.83
2023-03-17T18:53:12.149Z,7.87
2023-03-17T18:55:41.402Z,6.73
2023-03-17T18:58:09.580Z,8.03
2023-03-17T19:00:37.764Z,7.80
2023-03-17T19:03:06.157Z,7.90
2023-03-17T19:05:39.402Z,10.27
2023-03-17T19:08:08.176Z,6.87
2023-03-17T19:10:37.685Z,7.33
2023-03-17T19:13:06.155Z,6.10
2023-03-17T19:15:34.454Z,7.63
2023-03-17T19:18:02.728Z,8.30
2023-03-17T19:20:31.488Z,6.57
2023-03-17T19:22:59.802Z,6.20
2023-03-17T19:25:28.249Z,7.03
2023-03-17T19:27:59.043Z,7.03
2023-03-17T19:30:27.494Z,6.63
2023-03-17T19:32:55.719Z,7.50
2023-03-17T19:35:24.166Z,7.87
2023-03-17T19:37:52.301Z,6.53
2023-03-17T19:40:20.456Z,7.83
2023-03-17T19:42:48.853Z,8.23
2023-03-17T19:45:18.517Z,8.17
2023-03-17T19:47:46.962Z,7.90
2023-03-17T19:50:16.119Z,7.43
2023-03-17T19:52:45.881Z,7.97
2023-03-17T19:55:13.964Z,6.73
2023-03-17T19:57:42.268Z,6.30
2023-03-17T20:00:12.893Z,8.70
2023-03-17T20:02:42.383Z,7.10
2023-03-17T20:05:11.371Z,9.93
2023-03-17T20:07:39.650Z,6.53
2023-03-17T20:10:10.004Z,8.67
2023-03-17T20:12:39.298Z,7.73
2023-03-17T20:15:12.324Z,8.33
2023-03-17T20:17:41.977Z,6.17
2023-03-17T20:20:12.508Z,7.83
2023-03-17T20:22:43.483Z,7.80
2023-03-17T20:25:12.370Z,8.97
2023-03-17T20:27:41.588Z,6.27
2023-03-17T20:30:12.233Z,8.00
2023-03-17T20:32:41.955Z,10.20
2023-03-17T20:35:11.002Z,7.03
2023-03-17T20:37:39.492Z,7.80
2023-03-17T20:40:10.602Z,6.23
2023-03-17T20:42:38.771Z,8.70
2023-03-17T20:45:08.890Z,7.43
2023-03-17T20:47:37.609Z,8.90
2023-03-17T20:50:08.816Z,6.27
2023-03-17T20:52:38.093Z,7.17
2023-03-17T20:55:08.316Z,8.93
2023-03-17T20:57:37.903Z,6.00
2023-03-17T21:00:08.138Z,7.73
2023-03-17T21:02:36.292Z,7.40
2023-03-17T21:05:07.369Z,9.17
2023-03-17T21:07:35.495Z,7.13
2023-03-17T21:10:03.682Z,7.80
2023-03-17T21:12:31.842Z,8.73
2023-03-17T21:15:00.657Z,6.60
2023-03-17T21:17:28.960Z,7.27
2023-03-17T21:19:57.117Z,6.63
2023-03-17T21:22:26.813Z,9.03
2023-03-17T21:24:55.393Z,8.60
2023-03-17T21:27:23.624Z,6.53
2023-03-17T21:29:52.185Z,9.10
2023-03-17T21:32:20.324Z,8.67
2023-03-17T21:34:48.475Z,9.00
2023-03-17T21:37:18.276Z,8.33
2023-03-17T21:39:47.811Z,10.63
2023-03-17T21:42:15.903Z,8.63
2023-03-17T21:44:45.699Z,7.37
2023-03-17T21:47:13.883Z,9.37
2023-03-17T21:49:42.336Z,7.73
2023-03-17T21:52:10.710Z,8.30
2023-03-17T21:54:38.961Z,7.57
2023-03-17T21:57:08.664Z,10.23
2023-03-17T21:59:36.920Z,9.57
2023-03-17T22:02:05.070Z,9.47
2023-03-17T22:04:33.297Z,7.90
2023-03-17T22:07:04.293Z,10.53
2023-03-17T22:09:32.592Z,7.93
2023-03-17T22:12:00.776Z,10.70
2023-03-17T22:14:30.471Z,9.17
2023-03-17T22:16:58.774Z,8.70
2023-03-17T22:19:27.170Z,8.17
2023-03-17T22:21:56.495Z,9.20
2023-03-17T22:24:25.475Z,8.53
2023-03-17T22:26:53.997Z,9.20
2023-03-17T22:29:22.177Z,10.53
2023-03-17T22:31:52.311Z,8.03
2023-03-17T22:34:20.469Z,7.47
2023-03-17T22:36:48.558Z,7.97
2023-03-17T22:39:17.091Z,8.70
2023-03-17T22:41:45.682Z,8.60
2023-03-17T22:44:14.087Z,9.40
2023-03-17T22:46:42.364Z,7.87
2023-03-17T22:49:12.768Z,8.43
2023-03-17T22:51:41.908Z,8.47
2023-03-17T22:54:11.328Z,9.57
2023-03-17T22:56:39.809Z,8.70
2023-03-17T22:59:08.062Z,9.13
2023-03-17T23:01:36.313Z,8.90
2023-03-17T23:04:04.509Z,8.47
2023-03-17T23:06:35.161Z,10.73
2023-03-17T23:09:03.394Z,8.17
2023-03-17T23:11:31.834Z,8.50
2023-03-17T23:13:59.982Z,9.17
2023-03-17T23:16:28.162Z,9.53
2023-03-17T23:18:56.822Z,8.80
2023-03-17T23:21:36.262Z,9.93
2023-03-17T23:24:07.775Z,9.27
2023-03-17T23:26:37.756Z,9.57
2023-03-17T23:29:08.505Z,8.83
2023-03-17T23:31:38.209Z,8.00
2023-03-17T23:34:07.538Z,8.57
2023-03-17T23:36:40.012Z,8.73
2023-03-17T23:39:09.756Z,10.60
2023-03-17T23:41:38.243Z,8.90
2023-03-17T23:44:06.830Z,8.83
2023-03-17T23:46:35.035Z,11.37
2023-03-17T23:49:04.282Z,9.43
2023-03-17T23:51:33.356Z,10.03
2023-03-17T23:54:02.874Z,9.07
2023-03-17T23:56:32.142Z,11.30
2023-03-17T23:59:00.389Z,9.07
